Ali Curung Tennant Creek, Australia
Current Conditions -  °F | °C
As of 10:00 AM on Monday 24 Nov 2014 (Local Time) from YTNK Reporting Station
Clear Clear  
Wind Chill: 95°   Ceiling: Unl
Heat Index: 95°   Visibility: 6mi
Dew Point: 61°   Wind: 13mph
Humidity: 32%   Direction: 150°SSE
Pressure: 29.91"   Gusts: NA
Location:  21.02°S, 134.4°E
Report Text: YTNK 240100Z AUTO 15011KT 9999 // NCD 35/16 Q1013
Loading
Personal Weather Stations






























Interactive Weather Map New forecast layout! Learn more

10-Day Weather Forecast

Advertisements
Track Severe Weather on mobile